createdAt,value
2023-05-14T00:00:18.401Z,4.47
2023-05-14T00:00:46.273Z,4.47
2023-05-14T00:01:17.305Z,4.47
2023-05-14T00:01:47.778Z,4.47
2023-05-14T00:02:20.093Z,4.47
2023-05-14T00:02:51.235Z,4.58
2023-05-14T00:03:20.932Z,4.58
2023-05-14T00:03:52.108Z,4.58
2023-05-14T00:04:22.667Z,4.58
2023-05-14T00:04:53.823Z,4.58
2023-05-14T00:05:26.131Z,4.58
2023-05-14T00:05:55.685Z,4.58
2023-05-14T00:06:26.837Z,4.63
2023-05-14T00:06:58.140Z,4.63
2023-05-14T00:07:29.064Z,4.63
2023-05-14T00:08:00.522Z,4.63
2023-05-14T00:08:30.661Z,4.63
2023-05-14T00:09:01.732Z,4.63
2023-05-14T00:09:32.827Z,4.63
2023-05-14T00:10:03.757Z,4.74
2023-05-14T00:10:35.556Z,4.74
2023-05-14T00:11:06.067Z,4.74
2023-05-14T00:11:36.548Z,4.74
2023-05-14T00:12:07.834Z,4.86
2023-05-14T00:12:38.685Z,4.86
2023-05-14T00:13:10.396Z,4.86
2023-05-14T00:13:40.845Z,4.86
2023-05-14T00:14:12.059Z,4.86
2023-05-14T00:14:43.087Z,4.86
2023-05-14T00:15:16.489Z,4.86
2023-05-14T00:15:45.953Z,4.86
2023-05-14T00:16:15.678Z,4.97
2023-05-14T00:16:46.749Z,4.97
2023-05-14T00:17:17.800Z,4.97
2023-05-14T00:17:48.846Z,4.97
2023-05-14T00:18:19.621Z,4.97
2023-05-14T00:18:51.272Z,4.97
2023-05-14T00:19:21.789Z,4.97
2023-05-14T00:19:52.582Z,4.97
2023-05-14T00:20:23.851Z,4.97
2023-05-14T00:20:55.704Z,5.08
2023-05-14T00:21:25.774Z,5.08
2023-05-14T00:21:56.562Z,5.08
2023-05-14T00:22:27.527Z,5.08
2023-05-14T00:22:58.518Z,5.08
2023-05-14T00:23:29.902Z,5.08
2023-05-14T00:24:00.801Z,5.08
2023-05-14T00:24:31.966Z,5.08
2023-05-14T00:25:03.313Z,5.08
2023-05-14T00:25:34.068Z,5.08
2023-05-14T00:26:05.809Z,5.08
2023-05-14T00:26:35.786Z,5.08
2023-05-14T00:27:06.539Z,5.08
2023-05-14T00:27:37.940Z,5.08
2023-05-14T00:28:08.978Z,5.08
2023-05-14T00:28:40.132Z,5.08
2023-05-14T00:29:11.242Z,5.08
2023-05-14T00:29:42.321Z,5.08
2023-05-14T00:30:15.774Z,5.08
2023-05-14T00:30:43.964Z,5.08
2023-05-14T00:31:16.682Z,5.08
2023-05-14T00:31:45.853Z,5.08
2023-05-14T00:32:17.778Z,5.13
2023-05-14T00:32:48.310Z,5.13
2023-05-14T00:33:19.433Z,5.13
2023-05-14T00:33:50.140Z,5.13
2023-05-14T00:34:21.021Z,5.13
2023-05-14T00:34:51.680Z,5.13
2023-05-14T00:35:23.009Z,5.13
2023-05-14T00:35:54.014Z,5.13
2023-05-14T00:36:25.640Z,5.13
2023-05-14T00:36:55.713Z,5.13
2023-05-14T00:37:26.720Z,5.13
2023-05-14T00:37:57.770Z,5.13
2023-05-14T00:38:28.755Z,5.13
2023-05-14T00:38:59.571Z,5.13
2023-05-14T00:39:30.935Z,5.13
2023-05-14T00:40:01.845Z,5.24
2023-05-14T00:40:36.903Z,5.24
2023-05-14T00:41:04.475Z,5.24
2023-05-14T00:41:36.178Z,5.24
2023-05-14T00:42:06.291Z,5.24
2023-05-14T00:42:37.215Z,5.24
2023-05-14T00:43:08.896Z,5.24
2023-05-14T00:43:39.380Z,5.24
2023-05-14T00:44:10.113Z,5.24
2023-05-14T00:44:42.077Z,5.24
2023-05-14T00:45:15.304Z,5.24
2023-05-14T00:45:42.976Z,5.24
2023-05-14T00:46:14.846Z,5.24
2023-05-14T00:46:46.263Z,5.24
2023-05-14T00:47:16.019Z,5.36
2023-05-14T00:47:47.365Z,5.36
2023-05-14T00:48:18.305Z,5.36
2023-05-14T00:48:49.346Z,5.36
2023-05-14T00:49:20.006Z,5.36
2023-05-14T00:49:51.132Z,5.36
2023-05-14T00:50:22.316Z,5.36
2023-05-14T00:50:53.253Z,5.36
2023-05-14T00:51:23.557Z,5.36
2023-05-14T00:51:55.677Z,5.36
2023-05-14T00:52:26.264Z,5.36
2023-05-14T00:52:56.794Z,5.36
2023-05-14T00:53:27.687Z,5.36
2023-05-14T00:53:58.849Z,5.36
2023-05-14T00:54:29.814Z,5.36
2023-05-14T00:55:01.031Z,5.36
2023-05-14T00:55:32.095Z,5.36
2023-05-14T00:56:03.411Z,5.36
2023-05-14T00:56:34.007Z,5.36
2023-05-14T00:57:05.784Z,5.36
2023-05-14T00:57:35.880Z,5.36
2023-05-14T00:58:07.067Z,5.47
2023-05-14T00:58:38.304Z,5.47
2023-05-14T00:59:09.148Z,5.47
2023-05-14T00:59:40.132Z,5.47
2023-05-14T01:00:14.335Z,5.47
2023-05-14T01:00:42.021Z,5.36
2023-05-14T01:01:13.361Z,5.36
2023-05-14T01:01:43.710Z,5.36
2023-05-14T01:02:15.921Z,5.36
2023-05-14T01:02:46.136Z,5.36
2023-05-14T01:03:17.484Z,5.36
2023-05-14T01:03:47.961Z,5.36
2023-05-14T01:04:18.967Z,5.36
2023-05-14T01:04:49.906Z,5.36
2023-05-14T01:05:20.905Z,5.36
2023-05-14T01:05:52.058Z,5.36
2023-05-14T01:06:23.265Z,5.36
2023-05-14T01:06:53.988Z,5.36
2023-05-14T01:07:25.720Z,5.36
2023-05-14T01:07:55.807Z,5.36
2023-05-14T01:08:27.570Z,5.36
2023-05-14T01:08:58.038Z,5.36
2023-05-14T01:09:29.147Z,5.36
2023-05-14T01:10:00.025Z,5.36
2023-05-14T01:10:30.772Z,5.36
2023-05-14T01:11:02.090Z,5.36
2023-05-14T01:11:33.087Z,5.36
2023-05-14T01:12:09.266Z,5.47
2023-05-14T01:12:36.233Z,5.47
2023-05-14T01:17:36.495Z,5.47
2023-05-14T01:17:40.941Z,5.47
2023-05-14T01:18:10.794Z,5.47
2023-05-14T01:18:41.723Z,5.47
2023-05-14T01:19:12.668Z,5.47
2023-05-14T01:19:43.679Z,5.47
2023-05-14T01:20:15.074Z,5.47
2023-05-14T01:21:23.859Z,5.47
2023-05-14T01:21:59.637Z,5.47
2023-05-14T01:22:24.510Z,5.47
2023-05-14T01:22:57.949Z,5.47
2023-05-14T01:23:26.900Z,5.47
2023-05-14T01:23:57.757Z,5.47
2023-05-14T01:24:27.879Z,5.47
2023-05-14T01:24:58.976Z,5.47
2023-05-14T01:25:29.730Z,5.47
2023-05-14T01:26:00.917Z,5.47
2023-05-14T01:26:32.156Z,5.47
2023-05-14T01:27:02.701Z,5.47
2023-05-14T01:27:33.742Z,5.47
2023-05-14T01:28:05.929Z,5.47
2023-05-14T01:28:36.898Z,5.47
2023-05-14T01:29:07.454Z,5.47
2023-05-14T01:29:38.535Z,5.47
2023-05-14T01:30:17.294Z,5.47
2023-05-14T01:30:40.254Z,5.47
2023-05-14T01:31:10.911Z,5.47
2023-05-14T01:31:42.129Z,5.47
2023-05-14T01:32:12.827Z,5.47
2023-05-14T01:32:43.936Z,5.47
2023-05-14T01:33:16.080Z,5.47
2023-05-14T01:33:45.804Z,5.47
2023-05-14T01:34:17.201Z,5.47
2023-05-14T01:34:48.421Z,5.47
2023-05-14T01:35:19.670Z,5.47
2023-05-14T01:35:50.140Z,5.58
2023-05-14T01:36:24.852Z,5.58
2023-05-14T01:36:54.486Z,5.58
2023-05-14T01:37:22.895Z,5.58
2023-05-14T01:37:54.212Z,5.58
2023-05-14T01:38:25.782Z,5.58
2023-05-14T01:38:55.799Z,5.58
2023-05-14T01:39:27.016Z,5.58
2023-05-14T01:39:57.892Z,5.58
2023-05-14T01:40:28.823Z,5.58
2023-05-14T01:40:59.612Z,5.58
2023-05-14T01:41:30.989Z,5.58
2023-05-14T01:42:02.025Z,5.63
2023-05-14T01:42:33.031Z,5.63
2023-05-14T01:43:04.992Z,5.63
2023-05-14T01:43:36.073Z,5.63
2023-05-14T01:44:05.757Z,5.63
2023-05-14T01:44:37.051Z,5.63
2023-05-14T01:45:10.668Z,5.63
2023-05-14T01:45:39.021Z,5.63
2023-05-14T01:46:10.074Z,5.63
2023-05-14T01:46:41.105Z,5.63
2023-05-14T01:47:11.854Z,5.63
2023-05-14T01:47:42.589Z,5.63
2023-05-14T01:48:13.726Z,5.63
2023-05-14T01:48:45.867Z,5.63
2023-05-14T01:49:15.644Z,5.63
2023-05-14T01:49:46.619Z,5.63
2023-05-14T01:50:17.468Z,5.63
2023-05-14T01:50:49.286Z,5.63
2023-05-14T01:51:20.636Z,5.63
2023-05-14T01:51:50.947Z,5.63
2023-05-14T01:52:22.275Z,5.63
2023-05-14T01:52:53.234Z,5.63
2023-05-14T01:53:24.274Z,5.63
2023-05-14T01:53:55.726Z,5.63
2023-05-14T01:54:26.200Z,5.63
2023-05-14T01:54:56.937Z,5.63
2023-05-14T01:55:27.949Z,5.63
2023-05-14T01:55:58.874Z,5.74
2023-05-14T01:56:29.849Z,5.74
2023-05-14T01:57:00.696Z,5.74
2023-05-14T01:57:31.800Z,5.74
2023-05-14T01:58:03.323Z,5.74
2023-05-14T01:58:34.900Z,5.74
2023-05-14T01:59:06.145Z,5.74
2023-05-14T01:59:35.857Z,5.74
2023-05-14T02:00:09.685Z,5.74
2023-05-14T02:00:38.119Z,5.74
2023-05-14T02:01:09.036Z,5.74
2023-05-14T02:01:40.100Z,5.74
2023-05-14T02:02:11.271Z,5.86
2023-05-14T02:02:42.011Z,5.86
2023-05-14T02:03:13.384Z,5.86
2023-05-14T02:03:44.133Z,5.86
2023-05-14T02:04:15.849Z,5.86
2023-05-14T02:04:46.026Z,5.86
2023-05-14T02:05:16.661Z,5.86
2023-05-14T02:05:48.573Z,5.86
2023-05-14T02:06:19.403Z,5.86
2023-05-14T02:06:49.914Z,5.86
2023-05-14T02:07:20.886Z,5.86
2023-05-14T02:07:51.762Z,5.86
2023-05-14T02:08:22.828Z,5.86
2023-05-14T02:08:53.660Z,5.86
2023-05-14T02:09:25.956Z,5.86
2023-05-14T02:09:55.846Z,5.86
2023-05-14T02:10:26.841Z,5.86
2023-05-14T02:10:57.645Z,5.86
2023-05-14T02:11:28.783Z,5.86
2023-05-14T02:12:00.193Z,5.86
2023-05-14T02:12:30.801Z,5.86
2023-05-14T02:13:01.608Z,5.86
2023-05-14T02:13:32.932Z,5.86
2023-05-14T02:14:03.978Z,5.86
2023-05-14T02:14:36.106Z,5.86
2023-05-14T02:15:08.458Z,5.86
2023-05-14T02:15:36.799Z,5.86
2023-05-14T02:16:08.110Z,5.86
2023-05-14T02:16:38.872Z,5.86
2023-05-14T02:17:10.194Z,5.86
2023-05-14T02:17:41.546Z,5.86
2023-05-14T02:18:12.176Z,5.97
2023-05-14T02:18:43.434Z,5.97
2023-05-14T02:19:13.763Z,5.97
2023-05-14T02:19:46.054Z,5.97
2023-05-14T02:20:15.803Z,5.97
2023-05-14T02:20:47.112Z,5.97
2023-05-14T02:21:18.046Z,5.97
2023-05-14T02:21:49.127Z,5.97
2023-05-14T02:22:19.982Z,5.97
2023-05-14T02:22:50.895Z,5.97
2023-05-14T02:23:34.169Z,5.97
2023-05-14T02:23:53.445Z,5.97
2023-05-14T02:24:24.454Z,5.97
2023-05-14T02:24:56.154Z,5.97
2023-05-14T02:25:25.820Z,5.97
2023-05-14T02:25:57.386Z,5.97
2023-05-14T02:26:27.977Z,5.97
2023-05-14T02:26:59.021Z,5.97
2023-05-14T02:27:29.730Z,5.97
2023-05-14T02:28:01.279Z,5.97
2023-05-14T02:28:32.294Z,5.97
2023-05-14T02:29:03.366Z,5.97
2023-05-14T02:29:33.913Z,5.97
2023-05-14T02:30:08.460Z,5.97
2023-05-14T02:30:35.840Z,5.97
2023-05-14T02:31:07.164Z,5.97
2023-05-14T02:31:37.900Z,5.97
2023-05-14T02:32:09.032Z,5.97
2023-05-14T02:32:40.104Z,5.97
2023-05-14T02:33:11.195Z,5.97
2023-05-14T02:33:41.990Z,5.97
2023-05-14T02:34:12.794Z,5.97
2023-05-14T02:34:44.091Z,5.97
2023-05-14T02:35:16.162Z,5.97
2023-05-14T02:35:46.130Z,5.97
2023-05-14T02:36:17.209Z,5.97
2023-05-14T02:36:48.282Z,5.97
2023-05-14T02:37:18.852Z,5.97
2023-05-14T02:37:49.904Z,5.97
2023-05-14T02:38:20.614Z,5.97
2023-05-14T02:38:52.429Z,5.97
2023-05-14T02:39:23.240Z,5.97
2023-05-14T02:39:54.140Z,5.97
2023-05-14T02:40:26.294Z,5.97
2023-05-14T02:40:55.933Z,6.08
2023-05-14T02:41:26.961Z,6.08
2023-05-14T02:41:58.096Z,6.08
2023-05-14T02:42:28.842Z,6.08
2023-05-14T02:42:59.965Z,6.08
2023-05-14T02:43:30.997Z,6.08
2023-05-14T02:44:01.702Z,6.08
2023-05-14T02:44:33.017Z,6.08
2023-05-14T02:45:06.823Z,6.08
2023-05-14T02:45:35.843Z,6.08
2023-05-14T02:46:06.282Z,6.08
2023-05-14T02:46:37.326Z,6.08
2023-05-14T02:47:10.025Z,6.08
2023-05-14T02:47:39.304Z,6.08
2023-05-14T02:48:10.090Z,6.08
2023-05-14T02:48:40.802Z,6.08
2023-05-14T02:49:11.998Z,6.08
2023-05-14T02:49:43.193Z,6.08
2023-05-14T02:50:14.013Z,6.08
2023-05-14T02:50:45.993Z,6.08
2023-05-14T02:51:15.932Z,6.08
2023-05-14T02:51:46.704Z,6.08
2023-05-14T02:52:17.639Z,6.08
2023-05-14T02:52:49.042Z,6.08
2023-05-14T02:53:19.622Z,6.13
2023-05-14T02:53:50.563Z,6.13
2023-05-14T02:54:21.847Z,6.13
2023-05-14T02:54:52.928Z,6.13
2023-05-14T02:55:23.759Z,6.13
2023-05-14T02:55:55.840Z,6.13
2023-05-14T02:56:26.164Z,6.13
2023-05-14T02:56:56.771Z,6.13
2023-05-14T02:57:27.886Z,6.13
2023-05-14T02:57:59.067Z,6.13
2023-05-14T02:58:29.694Z,6.13
2023-05-14T02:59:00.668Z,6.13
2023-05-14T02:59:31.835Z,6.13
2023-05-14T03:00:06.174Z,6.13
2023-05-14T03:00:34.249Z,6.24
2023-05-14T03:01:06.356Z,6.24
2023-05-14T03:01:35.765Z,6.24
2023-05-14T03:02:07.183Z,6.24
2023-05-14T03:02:38.135Z,6.24
2023-05-14T03:03:09.052Z,6.24
2023-05-14T03:03:39.924Z,6.24
2023-05-14T03:04:11.834Z,6.24
2023-05-14T03:04:42.187Z,6.24
2023-05-14T03:05:12.778Z,6.24
2023-05-14T03:05:43.849Z,6.24
2023-05-14T03:06:16.059Z,6.24
2023-05-14T03:06:45.613Z,6.24
2023-05-14T03:07:16.782Z,6.24
2023-05-14T03:07:48.226Z,6.24
2023-05-14T03:08:18.589Z,6.24
2023-05-14T03:08:49.715Z,6.24
2023-05-14T03:09:20.537Z,6.24
2023-05-14T03:09:51.887Z,6.24
2023-05-14T03:10:22.772Z,6.24
2023-05-14T03:10:53.916Z,6.36
2023-05-14T03:11:25.855Z,6.36
2023-05-14T03:11:55.887Z,6.36
2023-05-14T03:12:27.024Z,6.36
2023-05-14T03:12:57.792Z,6.36
2023-05-14T03:13:28.524Z,6.36
2023-05-14T03:14:00.294Z,6.36
2023-05-14T03:14:32.509Z,6.36
2023-05-14T03:15:05.585Z,6.36
2023-05-14T03:15:32.751Z,6.36
2023-05-14T03:16:04.598Z,6.36
2023-05-14T03:16:36.143Z,6.36
2023-05-14T03:17:06.127Z,6.47
2023-05-14T03:17:36.983Z,6.47
2023-05-14T03:18:08.101Z,6.47
2023-05-14T03:18:38.586Z,6.47
2023-05-14T03:19:10.014Z,6.47
2023-05-14T03:19:41.403Z,6.47
2023-05-14T03:20:11.980Z,6.47
2023-05-14T03:20:43.358Z,6.47
2023-05-14T03:21:15.286Z,6.47
2023-05-14T03:21:46.407Z,6.47
2023-05-14T03:22:15.700Z,6.47
2023-05-14T03:22:47.011Z,6.47
2023-05-14T03:23:18.219Z,6.47
2023-05-14T03:23:49.367Z,6.47
2023-05-14T03:24:20.417Z,6.47
2023-05-14T03:24:50.836Z,6.47
2023-05-14T03:25:22.419Z,6.47
2023-05-14T03:25:53.740Z,6.47
2023-05-14T03:26:24.298Z,6.47
2023-05-14T03:26:55.667Z,6.47
2023-05-14T03:27:25.906Z,6.47
2023-05-14T03:27:57.356Z,6.47
2023-05-14T03:28:28.296Z,6.47
2023-05-14T03:28:58.877Z,6.47
2023-05-14T03:29:29.990Z,6.47
2023-05-14T03:30:03.791Z,6.47
2023-05-14T03:30:31.844Z,6.47
2023-05-14T03:31:02.763Z,6.47
2023-05-14T03:31:33.799Z,6.47
2023-05-14T03:32:05.868Z,6.47
2023-05-14T03:32:36.001Z,6.47
2023-05-14T03:33:07.669Z,6.47
2023-05-14T03:33:37.897Z,6.47
2023-05-14T03:34:08.968Z,6.47
2023-05-14T03:34:39.908Z,6.47
2023-05-14T03:35:10.726Z,6.47
2023-05-14T03:35:42.083Z,6.47
2023-05-14T03:36:12.984Z,6.47
2023-05-14T03:36:44.034Z,6.47
2023-05-14T03:37:15.882Z,6.47
2023-05-14T03:37:45.851Z,6.47
2023-05-14T03:38:16.838Z,6.47
2023-05-14T03:38:48.097Z,6.47
2023-05-14T03:39:18.747Z,6.58
2023-05-14T03:39:50.273Z,6.58
2023-05-14T03:40:21.424Z,6.58
2023-05-14T03:40:52.070Z,6.58
2023-05-14T03:41:22.969Z,6.58
2023-05-14T03:41:53.992Z,6.58
2023-05-14T03:42:25.900Z,6.58
2023-05-14T03:42:55.925Z,6.58
2023-05-14T03:43:27.011Z,6.58
2023-05-14T03:43:57.820Z,6.58
2023-05-14T03:44:28.724Z,6.58
2023-05-14T03:45:00.070Z,6.58
2023-05-14T03:45:33.590Z,6.58
2023-05-14T03:46:02.077Z,6.58
2023-05-14T03:46:32.992Z,6.63
2023-05-14T03:47:03.603Z,6.63
2023-05-14T03:47:35.844Z,6.63
2023-05-14T03:48:06.346Z,6.63
2023-05-14T03:48:37.473Z,6.63
2023-05-14T03:49:08.742Z,6.63
2023-05-14T03:49:39.412Z,6.63
2023-05-14T03:50:10.149Z,6.63
2023-05-14T03:50:40.915Z,6.63
2023-05-14T03:51:12.267Z,6.63
2023-05-14T03:51:43.153Z,6.63
2023-05-14T03:52:13.760Z,6.63
2023-05-14T03:52:46.004Z,6.63
2023-05-14T03:53:16.082Z,6.63
2023-05-14T03:53:46.828Z,6.63
2023-05-14T03:54:17.742Z,6.63
2023-05-14T03:54:48.748Z,6.63
2023-05-14T03:55:19.862Z,6.63
2023-05-14T03:55:51.073Z,6.63
2023-05-14T03:56:22.092Z,6.74
2023-05-14T03:56:52.758Z,6.74
2023-05-14T03:57:24.195Z,6.74
2023-05-14T03:57:56.012Z,6.74
2023-05-14T03:58:26.287Z,6.74
2023-05-14T03:58:57.695Z,6.74
2023-05-14T03:59:28.853Z,6.74
2023-05-14T03:59:58.881Z,6.74
2023-05-14T04:00:33.236Z,6.74
2023-05-14T04:01:01.092Z,6.74
2023-05-14T04:01:32.660Z,6.74
2023-05-14T04:02:02.990Z,6.74
2023-05-14T04:02:33.908Z,6.74
2023-05-14T04:03:06.100Z,6.74
2023-05-14T04:03:36.088Z,6.74
2023-05-14T04:04:07.137Z,6.74
2023-05-14T04:04:38.479Z,6.74
2023-05-14T04:05:09.084Z,6.74
2023-05-14T04:05:40.145Z,6.74
2023-05-14T04:06:11.322Z,6.74
2023-05-14T04:06:41.988Z,6.74
2023-05-14T04:07:13.575Z,6.74
2023-05-14T04:07:44.558Z,6.74
2023-05-14T04:08:15.871Z,6.74
2023-05-14T04:08:46.306Z,6.74
2023-05-14T04:09:17.096Z,6.86
2023-05-14T04:09:48.162Z,6.86
2023-05-14T04:10:18.999Z,6.86
2023-05-14T04:10:50.254Z,6.86
2023-05-14T04:11:21.237Z,6.86
2023-05-14T04:11:52.164Z,6.86
2023-05-14T04:12:22.872Z,6.86
2023-05-14T04:12:54.292Z,6.86
2023-05-14T04:13:25.986Z,6.86
2023-05-14T04:13:56.069Z,6.86
2023-05-14T04:14:26.910Z,6.86
2023-05-14T04:14:58.205Z,6.86
2023-05-14T04:15:31.811Z,6.86
2023-05-14T04:16:00.373Z,6.86
2023-05-14T04:16:31.416Z,6.86
2023-05-14T04:17:02.298Z,6.86
2023-05-14T04:17:34.986Z,6.86
2023-05-14T04:18:05.319Z,6.97
2023-05-14T04:18:35.939Z,6.97
2023-05-14T04:19:06.134Z,6.97
2023-05-14T04:19:37.053Z,6.97
2023-05-14T04:20:08.122Z,6.97
2023-05-14T04:20:38.949Z,6.97
2023-05-14T04:21:10.355Z,6.97
2023-05-14T04:21:41.053Z,6.97
2023-05-14T04:22:11.980Z,6.97
2023-05-14T04:22:43.200Z,6.97
2023-05-14T04:23:14.107Z,6.97
2023-05-14T04:23:46.132Z,6.97
2023-05-14T04:24:16.234Z,6.97
2023-05-14T04:24:47.272Z,6.97
2023-05-14T04:25:21.774Z,6.97
2023-05-14T04:25:49.166Z,6.97
2023-05-14T04:26:19.862Z,6.97
2023-05-14T04:26:51.223Z,6.97
2023-05-14T04:27:22.570Z,6.97
2023-05-14T04:27:53.334Z,6.97
2023-05-14T04:28:24.570Z,7.08
2023-05-14T04:28:56.172Z,7.08
2023-05-14T04:29:26.130Z,7.08
2023-05-14T04:29:58.000Z,7.08
2023-05-14T04:30:31.241Z,7.08
2023-05-14T04:30:59.082Z,7.08
2023-05-14T04:31:30.147Z,7.08
2023-05-14T04:32:01.372Z,7.08
2023-05-14T04:32:32.373Z,7.08
2023-05-14T04:33:03.364Z,7.08
2023-05-14T04:33:34.467Z,7.08
2023-05-14T04:34:06.029Z,7.08
2023-05-14T04:34:36.024Z,7.08
2023-05-14T04:35:07.319Z,7.08
2023-05-14T04:35:38.185Z,7.08
2023-05-14T04:36:09.129Z,7.08
2023-05-14T04:36:40.334Z,7.08
2023-05-14T04:37:11.159Z,7.08
2023-05-14T04:37:42.876Z,7.08
2023-05-14T04:38:13.380Z,7.08
2023-05-14T04:38:43.856Z,7.08
2023-05-14T04:39:16.269Z,7.08
2023-05-14T04:39:46.610Z,7.08
2023-05-14T04:40:17.499Z,7.08
2023-05-14T04:40:48.290Z,7.08
2023-05-14T04:41:19.565Z,7.08
2023-05-14T04:41:50.118Z,7.08
2023-05-14T04:42:21.186Z,7.08
2023-05-14T04:42:52.346Z,7.08
2023-05-14T04:43:23.883Z,7.08
2023-05-14T04:43:54.069Z,7.08
2023-05-14T04:44:26.074Z,7.08
2023-05-14T04:44:56.088Z,7.08
2023-05-14T04:45:30.848Z,7.13
2023-05-14T04:45:58.099Z,7.13
2023-05-14T04:46:29.725Z,7.13
2023-05-14T04:46:59.998Z,7.13
2023-05-14T04:47:31.140Z,7.13
2023-05-14T04:48:02.112Z,7.13
2023-05-14T04:48:33.297Z,7.13
2023-05-14T04:49:04.088Z,7.24
2023-05-14T04:49:36.103Z,7.24
2023-05-14T04:50:06.053Z,7.24
2023-05-14T04:50:37.063Z,7.24
2023-05-14T04:51:08.558Z,7.24
2023-05-14T04:51:39.106Z,7.24
2023-05-14T04:52:09.992Z,7.24
2023-05-14T04:52:41.137Z,7.24
2023-05-14T04:53:12.793Z,7.24
2023-05-14T04:53:43.421Z,7.36
2023-05-14T04:54:14.330Z,7.36
2023-05-14T04:54:46.061Z,7.36
2023-05-14T04:55:16.178Z,7.36
2023-05-14T04:55:47.217Z,7.36
2023-05-14T04:56:19.648Z,7.36
2023-05-14T04:56:49.780Z,7.36
2023-05-14T04:57:20.153Z,7.36
2023-05-14T04:57:51.113Z,7.36
2023-05-14T04:58:22.021Z,7.36
2023-05-14T04:58:52.958Z,7.36
2023-05-14T04:59:24.608Z,7.36
2023-05-14T04:59:56.207Z,7.36
2023-05-14T05:00:28.801Z,7.36
2023-05-14T05:00:56.993Z,7.36
2023-05-14T05:01:28.147Z,7.36
2023-05-14T05:01:59.135Z,7.36
2023-05-14T05:02:29.975Z,7.36
2023-05-14T05:03:01.332Z,7.36
2023-05-14T05:03:32.033Z,7.36
2023-05-14T05:04:03.407Z,7.47
2023-05-14T05:04:34.658Z,7.47
2023-05-14T05:05:06.387Z,7.47
2023-05-14T05:05:36.598Z,7.47
2023-05-14T05:06:07.355Z,7.47
2023-05-14T05:06:38.246Z,7.47
2023-05-14T05:07:09.108Z,7.47
2023-05-14T05:07:40.288Z,7.58
2023-05-14T05:08:11.448Z,7.58
2023-05-14T05:08:42.162Z,7.58
2023-05-14T05:09:13.147Z,7.58
2023-05-14T05:09:43.981Z,7.58
2023-05-14T05:10:16.157Z,7.58
2023-05-14T05:10:46.302Z,7.58
2023-05-14T05:11:17.068Z,7.63
2023-05-14T05:11:48.119Z,7.63
2023-05-14T05:12:19.070Z,7.63
2023-05-14T05:12:50.071Z,7.63
2023-05-14T05:13:21.021Z,7.63
2023-05-14T05:13:52.203Z,7.63
2023-05-14T05:14:23.158Z,7.63
2023-05-14T05:14:54.202Z,7.74
2023-05-14T05:15:31.114Z,7.74
2023-05-14T05:15:56.488Z,7.74
2023-05-14T05:16:27.770Z,7.74
2023-05-14T05:16:58.232Z,7.74
2023-05-14T05:17:29.410Z,7.74
2023-05-14T05:18:00.411Z,7.86
2023-05-14T05:18:31.036Z,7.86
2023-05-14T05:19:02.357Z,7.86
2023-05-14T05:19:43.259Z,7.86
2023-05-14T05:20:04.033Z,7.86
2023-05-14T05:20:36.005Z,7.86
2023-05-14T05:21:06.883Z,7.86
2023-05-14T05:21:37.318Z,7.86
2023-05-14T05:22:07.910Z,7.97
2023-05-14T05:22:39.209Z,7.97
2023-05-14T05:23:10.438Z,7.97
2023-05-14T05:23:40.991Z,7.97
2023-05-14T05:24:12.050Z,7.97
2023-05-14T05:24:43.416Z,7.97
2023-05-14T05:25:14.239Z,8.08
2023-05-14T05:25:46.093Z,8.08
2023-05-14T05:26:15.963Z,8.08
2023-05-14T05:26:47.362Z,8.08
2023-05-14T05:27:18.202Z,8.08
2023-05-14T05:27:49.160Z,8.08
2023-05-14T05:28:19.920Z,8.08
2023-05-14T05:28:51.083Z,8.08
2023-05-14T05:29:22.067Z,8.08
2023-05-14T05:29:53.099Z,8.08
2023-05-14T05:30:27.363Z,8.08
2023-05-14T05:30:56.098Z,8.08
2023-05-14T05:31:27.777Z,8.08
2023-05-14T05:31:57.328Z,8.13
2023-05-14T05:32:28.516Z,8.13
2023-05-14T05:32:59.123Z,8.13
2023-05-14T05:33:30.210Z,8.13
2023-05-14T05:34:01.198Z,8.13
2023-05-14T05:34:32.316Z,8.13
2023-05-14T05:35:03.142Z,8.13
2023-05-14T05:35:34.182Z,8.13
2023-05-14T05:36:05.890Z,8.13
2023-05-14T05:36:36.081Z,8.13
2023-05-14T05:37:07.156Z,8.24
2023-05-14T05:37:38.074Z,8.24
2023-05-14T05:38:09.008Z,8.24
2023-05-14T05:38:40.037Z,8.24
2023-05-14T05:39:11.288Z,8.24
2023-05-14T05:39:42.475Z,8.36
2023-05-14T05:40:13.352Z,8.36
2023-05-14T05:40:44.524Z,8.36
2023-05-14T05:41:16.295Z,8.36
2023-05-14T05:41:46.142Z,8.36
2023-05-14T05:42:17.139Z,8.47
2023-05-14T05:42:50.200Z,8.47
2023-05-14T05:43:19.733Z,8.47
2023-05-14T05:43:49.979Z,8.47
2023-05-14T05:44:21.132Z,8.47
2023-05-14T05:44:51.882Z,8.47
2023-05-14T05:45:25.820Z,8.47
2023-05-14T05:45:54.298Z,8.58
2023-05-14T05:46:26.339Z,8.58
2023-05-14T05:46:56.424Z,8.58
2023-05-14T05:47:27.473Z,8.58
2023-05-14T05:47:58.360Z,8.58
2023-05-14T05:48:29.606Z,8.58
2023-05-14T05:49:00.175Z,8.58
2023-05-14T05:49:31.258Z,8.58
2023-05-14T05:50:02.310Z,8.58
2023-05-14T05:50:33.452Z,8.58
2023-05-14T05:51:05.246Z,8.58
2023-05-14T05:51:36.669Z,8.63
2023-05-14T05:52:06.434Z,8.63
2023-05-14T05:52:37.855Z,8.63
2023-05-14T05:53:08.542Z,8.63
2023-05-14T05:53:39.523Z,8.63
2023-05-14T05:54:10.090Z,8.74
2023-05-14T05:54:41.834Z,8.74
2023-05-14T05:55:12.665Z,8.74
2023-05-14T05:55:43.528Z,8.74
2023-05-14T05:56:14.096Z,8.70
2023-05-14T05:56:46.159Z,8.86
2023-05-14T05:57:16.041Z,8.70
2023-05-14T05:57:47.112Z,8.70
2023-05-14T05:58:18.558Z,8.70
2023-05-14T05:58:49.107Z,8.70
2023-05-14T05:59:20.109Z,8.81
2023-05-14T05:59:51.229Z,8.81
2023-05-14T06:00:25.665Z,8.81
2023-05-14T06:00:53.544Z,8.81
2023-05-14T06:01:23.940Z,8.81
2023-05-14T06:01:56.714Z,8.81
2023-05-14T06:02:26.524Z,8.81
2023-05-14T06:02:57.653Z,8.81
2023-05-14T06:03:29.727Z,8.81
2023-05-14T06:03:59.612Z,8.81
2023-05-14T06:04:30.410Z,8.81
2023-05-14T06:05:02.220Z,8.81
2023-05-14T06:05:33.393Z,8.92
2023-05-14T06:06:03.198Z,8.92
2023-05-14T06:06:34.121Z,8.92
2023-05-14T06:07:06.310Z,8.92
2023-05-14T06:07:35.940Z,8.92
2023-05-14T06:08:06.965Z,8.92
2023-05-14T06:08:37.983Z,8.92
2023-05-14T06:09:09.685Z,8.78
2023-05-14T06:09:40.259Z,8.78
2023-05-14T06:10:11.320Z,8.78
2023-05-14T06:10:42.470Z,8.78
2023-05-14T06:11:13.329Z,8.78
2023-05-14T06:11:43.967Z,8.78
2023-05-14T06:12:15.981Z,8.78
2023-05-14T06:12:46.347Z,8.78
2023-05-14T06:13:17.287Z,8.78
2023-05-14T06:13:48.390Z,8.78
2023-05-14T06:14:18.980Z,8.78
2023-05-14T06:14:49.958Z,8.78
2023-05-14T06:15:23.718Z,8.78
2023-05-14T06:15:52.330Z,8.83
2023-05-14T06:16:23.465Z,8.83
2023-05-14T06:16:54.238Z,8.78
2023-05-14T06:17:26.040Z,8.62
2023-05-14T06:17:56.015Z,8.62
2023-05-14T06:18:27.132Z,8.62
2023-05-14T06:18:58.268Z,8.62
2023-05-14T06:19:28.962Z,8.62
2023-05-14T06:20:00.477Z,8.62
2023-05-14T06:20:31.108Z,8.67
2023-05-14T06:21:02.543Z,8.67
2023-05-14T06:21:33.290Z,8.67
2023-05-14T06:22:04.290Z,8.67
2023-05-14T06:22:37.006Z,8.67
2023-05-14T06:23:06.041Z,8.78
2023-05-14T06:23:37.474Z,8.78
2023-05-14T06:24:08.318Z,8.78
2023-05-14T06:24:40.117Z,8.90
2023-05-14T06:25:10.443Z,8.90
2023-05-14T06:25:41.006Z,8.90
2023-05-14T06:26:12.056Z,8.90
2023-05-14T06:26:43.150Z,8.90
2023-05-14T06:27:14.295Z,8.75
2023-05-14T06:27:46.183Z,8.75
2023-05-14T06:28:16.250Z,8.75
2023-05-14T06:28:47.251Z,8.75
2023-05-14T06:29:18.594Z,8.75
2023-05-14T06:29:49.536Z,8.75
2023-05-14T06:30:23.383Z,8.75
2023-05-14T06:30:51.416Z,8.75
2023-05-14T06:31:23.397Z,8.75
2023-05-14T06:31:53.339Z,8.75
2023-05-14T06:32:24.260Z,8.75
2023-05-14T06:32:56.191Z,8.75
2023-05-14T06:33:26.155Z,8.75
2023-05-14T06:33:57.233Z,8.75
2023-05-14T06:34:28.145Z,8.75
2023-05-14T06:34:59.804Z,8.75
2023-05-14T06:35:30.553Z,8.75
2023-05-14T06:36:01.857Z,8.75
2023-05-14T06:36:31.917Z,8.75
2023-05-14T06:37:03.686Z,8.86
2023-05-14T06:37:34.405Z,8.86
2023-05-14T06:38:06.178Z,8.97
2023-05-14T06:38:36.276Z,8.97
2023-05-14T06:39:07.346Z,8.97
2023-05-14T06:39:38.509Z,8.97
2023-05-14T06:40:09.216Z,8.97
2023-05-14T06:40:40.176Z,8.97
2023-05-14T06:41:11.257Z,8.97
2023-05-14T06:41:42.461Z,8.97
2023-05-14T06:42:13.248Z,8.97
2023-05-14T06:42:44.501Z,8.97
2023-05-14T06:43:16.284Z,8.97
2023-05-14T06:43:46.053Z,8.80
2023-05-14T06:44:17.233Z,8.80
2023-05-14T06:44:48.938Z,8.69
2023-05-14T06:45:23.654Z,8.69
2023-05-14T06:45:50.681Z,8.69
2023-05-14T06:46:22.308Z,8.69
2023-05-14T06:46:52.384Z,8.69
2023-05-14T06:47:23.538Z,8.69
2023-05-14T06:47:54.785Z,8.69
2023-05-14T06:48:26.761Z,8.69
2023-05-14T06:48:58.082Z,8.69
2023-05-14T06:49:27.266Z,8.80
2023-05-14T06:49:58.134Z,8.85
2023-05-14T06:50:29.315Z,8.85
2023-05-14T06:51:00.737Z,8.85
2023-05-14T06:51:31.304Z,8.85
2023-05-14T06:52:02.182Z,8.85
2023-05-14T06:52:33.298Z,8.85
2023-05-14T06:53:04.419Z,8.69
2023-05-14T06:53:36.250Z,8.64
2023-05-14T06:54:06.405Z,8.64
2023-05-14T06:54:37.201Z,8.64
2023-05-14T06:55:08.497Z,8.64
2023-05-14T06:55:39.527Z,8.80
2023-05-14T06:56:10.616Z,8.85
2023-05-14T06:56:41.820Z,8.69
2023-05-14T06:57:13.126Z,8.69